Jasper, TX

6:53 PM CDT on September 25, 2016 (GMT -0500)
Jasper County-Bell

Weather History for KJAS - February, 2014

Change the Weather History Date:

Thursday, February 20, 2014

  Actual Average (KLFK) Record (KLFK)
Temperature  
Mean Temperature 67 °F 54 °F  
Max Temperature 78 °F 65 °F 92 °F (1986)
Min Temperature 55 °F 43 °F 24 °F (1908)
Degree Days  
Heating Degree Days 0 12  
Month to date heating degree days 269  
Since 1 July heating degree days 1549  
Cooling Degree Days 2 0  
Month to date cooling degree days 0  
Year to date cooling degree days 8  
Growing Degree Days 17 (Base 50)    
Moisture  
Dew Point 61 °F    
Average Humidity 76    
Maximum Humidity 96    
Minimum Humidity 50    
Precipitation  
Precipitation 0.46 in 0.14 in 3.06 in (2003)
Month to date precipitation 2.80  
Year to date precipitation 6.98  
Snow  
Snow 0.00 in - - ()
Month to date snowfall  
Since 1 July snowfall  
Snow Depth -    
Sea Level Pressure  
Sea Level Pressure 29.88 in    
Wind  
Wind Speed 11 mph (SSW)    
Max Wind Speed 23 mph    
Max Gust Speed 30 mph    
Visibility 9 miles    
Events Rain    
T = Trace of Precipitation, MM = Missing Value Source: NWS Daily Summary

Daily Weather History Graph

Daily Weather History Graph

Search for Another Location

Airport or City:

Trip Planner

Search our weather history database for the weather conditions in past years. The results will help you decide how hot, cold, wet, or windy it might be!

Date:

Astronomy

Feb. 20, 2014 Rise Set
Actual Time 6:52 AM CST 6:07 PM CST
Civil Twilight 6:27 AM CST 6:32 PM CST
Nautical Twilight 5:59 AM CST 7:00 PM CST
Astronomical Twilight 5:31 AM CST 7:28 PM CST
Moon 11:37 PM CST (2/20) 9:59 AM CST (2/20)
Length of Visible Light 12h 04m
Length of Day
11h 15m
Waning Gibbous, 70% of the Moon is Illuminated
Feb 20
Waning Gibbous
Feb 22
Last Quarter
Mar 1
New
Mar 8
First Quarter
Mar 16
Full

Hourly Weather History & Observations

Time (CST) Temp. Dew Point Humidity Pressure Visibility Wind Dir Wind Speed Gust Speed Precip Events Conditions
12:15 AM 67.5 °F 63.5 °F 87% 29.87 in 10.0 mi South 10.4 mph - N/A   Mostly Cloudy
12:35 AM 67.5 °F 63.5 °F 87% 29.87 in 10.0 mi SSE 9.2 mph 16.1 mph N/A   Mostly Cloudy
12:55 AM 67.3 °F 63.5 °F 88% 29.86 in 10.0 mi South 8.1 mph 17.3 mph N/A   Mostly Cloudy
1:15 AM 67.3 °F 63.7 °F 88% 29.86 in 10.0 mi South 6.9 mph - N/A   Mostly Cloudy
1:35 AM 67.5 °F 63.9 °F 88% 29.85 in 10.0 mi SSE 8.1 mph - N/A   Overcast
1:55 AM 67.6 °F 64.0 °F 88% 29.85 in 10.0 mi South 8.1 mph - N/A   Overcast
2:15 AM 68.0 °F 64.4 °F 88% 29.85 in 10.0 mi South 6.9 mph - N/A   Overcast
2:35 AM 67.6 °F 64.4 °F 89% 29.85 in 10.0 mi South 8.1 mph - N/A   Overcast
2:55 AM 68.0 °F 64.4 °F 88% 29.84 in 10.0 mi South 9.2 mph - N/A   Mostly Cloudy
3:15 AM 67.6 °F 64.4 °F 89% 29.84 in 10.0 mi South 9.2 mph - N/A   Mostly Cloudy
3:35 AM 67.8 °F 64.2 °F 88% 29.83 in 10.0 mi South 9.2 mph - N/A   Mostly Cloudy
3:55 AM 68.2 °F 64.4 °F 88% 29.83 in 10.0 mi South 9.2 mph - N/A   Mostly Cloudy
4:15 AM 68.7 °F 64.8 °F 87% 29.82 in 10.0 mi South 8.1 mph - N/A   Overcast
4:35 AM 69.4 °F 65.3 °F 87% 29.83 in 10.0 mi South 11.5 mph 17.3 mph N/A   Overcast
4:55 AM 70.0 °F 65.7 °F 86% 29.83 in 10.0 mi SSE 10.4 mph 20.7 mph N/A   Overcast
5:15 AM 70.5 °F 66.0 °F 86% 29.83 in 10.0 mi South 12.7 mph 17.3 mph N/A   Overcast
5:35 AM 70.9 °F 66.2 °F 85% 29.83 in 10.0 mi South 13.8 mph 21.9 mph N/A   Overcast
5:55 AM 71.1 °F 66.4 °F 85% 29.83 in 7.0 mi South 13.8 mph 20.7 mph N/A   Overcast
6:15 AM 71.2 °F 66.6 °F 85% 29.83 in 7.0 mi South 15.0 mph 19.6 mph N/A   Overcast
6:35 AM 71.2 °F 66.6 °F 85% 29.84 in 7.0 mi South 12.7 mph 18.4 mph N/A   Overcast
6:55 AM 71.4 °F 66.4 °F 84% 29.84 in 7.0 mi South 15.0 mph 24.2 mph N/A   Overcast
7:15 AM 71.6 °F 66.2 °F 83% 29.84 in 7.0 mi South 15.0 mph 21.9 mph N/A   Overcast
7:35 AM 71.6 °F 66.4 °F 84% 29.84 in 7.0 mi South 12.7 mph 18.4 mph N/A   Overcast
7:55 AM 71.8 °F 66.4 °F 83% 29.85 in 7.0 mi South 13.8 mph 20.7 mph N/A   Overcast
8:15 AM 72.0 °F 66.4 °F 83% 29.85 in 10.0 mi South 16.1 mph 24.2 mph N/A   Overcast
8:35 AM 72.1 °F 66.2 °F 82% 29.86 in 10.0 mi South 16.1 mph 23.0 mph N/A   Overcast
8:55 AM 72.5 °F 65.7 °F 79% 29.88 in 10.0 mi South 15.0 mph 19.6 mph N/A   Overcast
9:15 AM 73.4 °F 65.5 °F 76% 29.89 in 10.0 mi SSW 12.7 mph 24.2 mph N/A   Overcast
9:35 AM 73.2 °F 65.3 °F 76% 29.90 in 10.0 mi SSW 11.5 mph - N/A   Overcast
9:55 AM 73.0 °F 65.3 °F 77% 29.90 in 10.0 mi South 12.7 mph 17.3 mph N/A   Overcast
10:15 AM 74.3 °F 65.7 °F 74% 29.90 in 10.0 mi South 9.2 mph 20.7 mph N/A   Overcast
10:35 AM 75.0 °F 65.8 °F 73% 29.91 in 10.0 mi SSW 10.4 mph - N/A   Overcast
10:55 AM 75.0 °F 65.5 °F 72% 29.91 in 10.0 mi SSW 16.1 mph 24.2 mph N/A   Overcast
11:15 AM 75.9 °F 65.1 °F 69% 29.91 in 10.0 mi SSW 17.3 mph 25.3 mph N/A   Overcast
11:35 AM 76.3 °F 64.9 °F 68% 29.90 in 10.0 mi South 17.3 mph 21.9 mph N/A   Overcast
11:55 AM 75.9 °F 64.6 °F 68% 29.90 in 10.0 mi South 10.4 mph - N/A   Overcast
12:15 PM 75.0 °F 64.9 °F 71% 29.90 in 10.0 mi South 12.7 mph 21.9 mph N/A   Overcast
12:35 PM 76.1 °F 64.6 °F 67% 29.88 in 10.0 mi South 15.0 mph 25.3 mph N/A   Scattered Clouds
12:55 PM 77.0 °F 64.2 °F 65% 29.87 in 10.0 mi South 17.3 mph 21.9 mph N/A   Mostly Cloudy
1:15 PM 77.9 °F 63.7 °F 61% 29.85 in 10.0 mi South 17.3 mph 20.7 mph N/A   Mostly Cloudy
1:35 PM 78.1 °F 63.0 °F 60% 29.85 in 10.0 mi South 23.0 mph 29.9 mph N/A   Mostly Cloudy
1:55 PM 78.1 °F 62.1 °F 58% 29.83 in 10.0 mi South 16.1 mph 28.8 mph N/A   Mostly Cloudy
2:15 PM 78.6 °F 61.7 °F 56% 29.82 in 10.0 mi South 17.3 mph 23.0 mph N/A   Mostly Cloudy
2:35 PM 77.5 °F 61.3 °F 57% 29.82 in 10.0 mi South 13.8 mph 17.3 mph N/A   Overcast
2:55 PM 78.1 °F 61.2 °F 56% 29.82 in 10.0 mi SSW 15.0 mph 25.3 mph N/A   Overcast
3:15 PM 77.4 °F 61.5 °F 58% 29.82 in 10.0 mi SSW 11.5 mph 18.4 mph N/A   Overcast
3:35 PM 76.6 °F 61.2 °F 59% 29.82 in 10.0 mi SSW 9.2 mph 17.3 mph N/A   Overcast
3:55 PM 74.3 °F 63.0 °F 68% 29.83 in 5.0 mi SW 3.5 mph - 0.03 in Rain Light Rain
4:15 PM 70.5 °F 65.8 °F 85% 29.83 in 10.0 mi Calm Calm - N/A   Overcast
4:35 PM 68.7 °F 66.2 °F 92% 29.81 in 10.0 mi SSW 4.6 mph - N/A   Mostly Cloudy
4:55 PM 70.7 °F 65.8 °F 85% 29.83 in 10.0 mi Calm Calm - N/A   Overcast
5:15 PM 70.3 °F 65.3 °F 84% 29.85 in 10.0 mi WNW 5.8 mph 23.0 mph N/A   Overcast
5:35 PM 69.4 °F 63.7 °F 82% 29.85 in 7.0 mi WNW 10.4 mph - 0.09 in Rain Heavy Rain
5:55 PM 66.4 °F 64.0 °F 92% 29.84 in 3.0 mi ESE 3.5 mph - 0.27 in Rain Heavy Rain
6:15 PM 65.5 °F 63.9 °F 94% 29.85 in 1.2 mi Calm Calm - 0.16 in Rain Rain
6:35 PM 64.9 °F 63.7 °F 96% 29.86 in 4.0 mi Calm Calm - 0.16 in   Light Drizzle
6:55 PM 64.8 °F 63.7 °F 96% 29.87 in 5.0 mi West 4.6 mph - 0.16 in   Light Drizzle
7:15 PM 64.6 °F 63.5 °F 96% 29.90 in 5.0 mi WSW 3.5 mph - N/A   Scattered Clouds
7:35 PM 64.8 °F 63.5 °F 96% 29.90 in 7.0 mi WNW 8.1 mph - N/A   Mostly Cloudy
7:55 PM 65.3 °F 63.0 °F 92% 29.91 in 10.0 mi NW 12.7 mph 18.4 mph N/A   Mostly Cloudy
8:15 PM 65.8 °F 59.9 °F 81% 29.93 in 10.0 mi NW 15.0 mph 23.0 mph N/A   Mostly Cloudy
8:35 PM 65.3 °F 53.8 °F 66% 29.94 in 10.0 mi NW 15.0 mph 28.8 mph N/A   Overcast
8:55 PM 63.9 °F 49.3 °F 59% 29.96 in 10.0 mi NW 12.7 mph 19.6 mph N/A   Scattered Clouds
9:15 PM 63.0 °F 45.7 °F 53% 29.97 in 10.0 mi NW 10.4 mph 20.7 mph N/A   Scattered Clouds
9:35 PM 62.1 °F 43.0 °F 50% 29.99 in 10.0 mi NW 11.5 mph 18.4 mph N/A   Clear
9:55 PM 60.8 °F 41.9 °F 50% 30.01 in 10.0 mi NNW 12.7 mph 19.6 mph N/A   Clear
10:15 PM 59.4 °F 42.3 °F 53% 30.03 in 10.0 mi NNW 10.4 mph - N/A   Clear
10:35 PM 58.6 °F 41.7 °F 53% 30.05 in 10.0 mi NNW 13.8 mph 17.3 mph N/A   Clear
10:55 PM 58.3 °F 40.6 °F 52% 30.06 in 10.0 mi NNW 11.5 mph 23.0 mph N/A   Clear
11:15 PM 57.6 °F 40.1 °F 52% 30.08 in 10.0 mi NNW 9.2 mph - N/A   Clear
11:35 PM 56.7 °F 39.7 °F 53% 30.09 in 10.0 mi North 8.1 mph - N/A   Clear
11:55 PM 55.4 °F 40.1 °F 56% 30.10 in 10.0 mi North 10.4 mph 18.4 mph N/A   Clear